Terminal Aerodrome Forecast
Issued by NWS

Home | Current Version | Previous Version | Text Only | Print | Product List | Glossary On
Versions: 1 2 3 4 5 6 7 8 9 10 11 12 13 14 15 16 17 18 19 20 21 22
000
FTUS41 KPBZ 270531
TAFZZV
TAF
KZZV 270531Z 2706/2806 19008KT P6SM BKN100
     FM270800 22004KT 3SM BR SCT100
      TEMPO 2709/2712 1SM BR BKN015
     FM271500 21010KT P6SM BKN060
     FM280100 22006KT 6SM -RA OVC040=

USA.gov is the U.S. government's official web portal to all federal, state and local government web resources and services.